Terminal Aerodrome Forecast
Issued by NWS

Home | Current Version | Previous Version | Text Only | Print | Product List | Glossary Off
Versions: 1 2 3 4 5 6 7 8 9 10 11 12 13 14 15 16

816
FTUS43 KICT 221720
TAFRSL
TAF
KRSL 221720Z 2218/2318 20010KT P6SM FEW120
     FM222200 17010KT P6SM VCTS SCT070CB BKN150
     FM231000 17009KT P6SM SCT120
     FM231600 19013G22KT P6SM SCT100=

USA.gov is the U.S. government's official web portal to all federal, state and local government web resources and services.